Data for 09/05/2006

Time Sea-Level Adjusted Pressure Absolute Pressure Temperature Relative Humidity Dew Point   
(mb) (inHg) (mb) (inHg) (C) (F) (%) (C) (F)
00:05 1024 30.24 853 25.19 19.7 67.4 19 -4.3 24.2
00:10 1024 30.24 853 25.19 19.7 67.4 20 -4.1 24.6
00:15 1024 30.24 853 25.19 19.5 67.2 20 -4.2 24.5
00:20 1024 30.24 853 25.19 19.3 66.8 20 -4.1 24.7
00:25 1024 30.24 853 25.19 19.1 66.4 20 -4.3 24.2
00:30 1023 30.21 853 25.19 19.2 66.5 20 -4.2 24.4
00:35 1024 30.24 853 25.19 19.1 66.3 20 -4.3 24.3
00:40 1024 30.24 853 25.19 18.9 66 21 -4.1 24.6
00:45 1024 30.24 853 25.19 18.7 65.7 21 -4 24.8
00:50 1024 30.24 853 25.19 18.4 65.2 21 -4.2 24.5
00:55 1024 30.24 853 25.19 18.2 64.8 22 -3.4 25.8
01:00 1024 30.24 853 25.19 17.7 63.8 23 -3.6 25.5
01:05 1024 30.24 853 25.19 17.4 63.3 23 -3.9 25
01:10 1024 30.24 853 25.19 17.4 63.3 23 -4 24.7
01:15 1024 30.24 853 25.19 17.4 63.4 22 -4.1 24.5
01:20 1024 30.24 853 25.19 17.5 63.5 22 -4.1 24.5
01:25 1024 30.24 853 25.19 17.7 63.8 22 -4.1 24.6
01:30 1024 30.24 853 25.19 17.7 63.8 22 -4 24.8
01:35 1024 30.24 853 25.19 17.6 63.7 22 -4 24.8
01:40 1024 30.24 853 25.19 17.6 63.6 23 -3.9 24.9
01:45 1024 30.24 853 25.19 17.4 63.4 23 -4 24.9
01:50 1024 30.24 853 25.19 17.3 63.1 23 -3.8 25.2
01:55 1024 30.24 853 25.19 16.8 62.2 24 -4 24.9
02:00 1024 30.24 853 25.19 16.5 61.6 24 -4.1 24.7
02:05 1024 30.24 853 25.19 16.5 61.8 24 -4.1 24.5
02:10 1024 30.24 853 25.19 16.4 61.5 24 -4 24.9
02:15 1024 30.24 853 25.19 16.3 61.3 25 -3.8 25.1
02:20 1024 30.24 853 25.19 16.2 61.2 25 -3.9 25
02:25 1024 30.24 853 25.19 16 60.8 25 -4.1 24.6
02:30 1024 30.24 853 25.19 16.2 61.1 24 -4.4 24
02:35 1024 30.24 853 25.19 15.9 60.5 24 -4.5 23.8
02:40 1024 30.24 853 25.19 15.9 60.5 23 -4.9 23.2
02:45 1024 30.24 853 25.19 15.9 60.6 27 -2.8 27
02:50 1024 30.24 853 25.19 15.8 60.5 23 -5.2 22.7
02:55 1024 30.24 853 25.19 15.9 60.6 29 -1.9 28.5
03:00 1024 30.24 853 25.19 15.8 60.5 24 -4.9 23.3
03:05 1024 30.24 853 25.19 15.7 60.3 29 -2 28.4
03:10 1024 30.24 853 25.19 15.6 60 23 -5.7 21.7
03:15 1024 30.24 853 25.19 16.1 60.9 20 -6.6 20.1
03:20 1024 30.24 853 25.19 17 62.7 21 -5.6 22
03:25 1024 30.24 853 25.19 16.8 62.2 22 -5.2 22.7
03:30 1024 30.24 853 25.19 16.3 61.3 23 -4.7 23.5
03:35 1024 30.24 853 25.19 15.5 59.9 25 -4.6 23.8
03:40 1024 30.24 853 25.19 15.2 59.3 25 -4.5 23.8
03:45 1024 30.24 853 25.19 15 59 25 -4.6 23.7
03:50 1024 30.24 853 25.19 15.1 59.2 26 -4.2 24.5
03:55 1024 30.24 853 25.19 15.2 59.3 25 -4.7 23.5
04:00 1024 30.24 853 25.19 15.1 59.1 26 -4.4 24.1
04:05 1024 30.24 853 25.19 15.1 59.2 25 -4.9 23.1
04:10 1024 30.24 853 25.19 15.4 59.7 24 -5.1 22.8
04:15 1024 30.24 853 25.19 15.6 60.1 23 -5.5 22
04:20 1024 30.24 853 25.19 15.9 60.6 23 -5.3 22.4
04:25 1024 30.24 853 25.19 15.6 60.1 23 -5.3 22.5
04:30 1024 30.24 853 25.19 15.5 59.9 23 -5.3 22.4
04:35 1024 30.24 853 25.19 15.5 59.9 24 -5.2 22.7
04:40 1024 30.24 853 25.19 15.4 59.8 23 -5.4 22.3
04:45 1024 30.24 854 25.22 15.6 60 23 -5.5 22
04:50 1024 30.24 854 25.22 15.8 60.4 23 -5.4 22.3
04:55 1025 30.27 854 25.22 15.8 60.4 27 -3 26.5
05:00 1025 30.27 854 25.22 15.8 60.4 22 -5.8 21.5
05:05 1025 30.27 854 25.22 15.9 60.5 30 -1.7 29
05:10 1025 30.27 854 25.22 15.9 60.5 23 -5 22.9
05:15 1025 30.27 854 25.22 15.6 60 29 -2.3 27.9
05:20 1025 30.27 854 25.22 14.5 58.1 29 -3.3 26
05:25 1025 30.27 854 25.22 13.5 56.4 30 -3.5 25.7
05:30 1025 30.27 854 25.22 13.3 55.9 31 -3.3 26.1
05:35 1025 30.27 854 25.22 13 55.3 30 -4.3 24.2
05:40 1025 30.27 854 25.22 12.9 55.2 29 -4.5 24
05:45 1025 30.27 854 25.22 12.9 55.2 29 -4.6 23.7
05:50 1025 30.27 854 25.22 12.8 55 30 -4.3 24.3
05:55 1025 30.27 854 25.22 12.6 54.6 31 -4 24.8
06:00 1025 30.27 854 25.22 12.4 54.3 31 -4.3 24.2
06:05 1025 30.27 854 25.22 12.5 54.6 30 -4.4 24.1
06:10 1025 30.27 854 25.22 12.5 54.5 31 -4.1 24.7
06:15 1025 30.27 854 25.22 12.5 54.4 31 -4.3 24.2
06:20 1025 30.27 854 25.22 12.5 54.5 31 -4.1 24.6
06:25 1025 30.27 854 25.22 12.6 54.7 30 -4.6 23.8
06:30 1025 30.27 854 25.22 12.9 55.1 29 -4.5 23.8
06:35 1025 30.27 854 25.22 13.2 55.7 26 -5.8 21.5
06:40 1025 30.27 854 25.22 14 57.1 25 -5.8 21.5
06:45 1025 30.27 854 25.22 14.3 57.7 25 -5.2 22.7
06:50 1025 30.27 854 25.22 14 57.1 26 -5.4 22.3
06:55 1025 30.27 854 25.22 13.9 57.1 25 -5.6 22
07:00 1025 30.27 854 25.22 13.9 57.1 25 -5.6 21.9
07:05 1025 30.27 854 25.22 13.8 56.8 26 -5.3 22.5
07:10 1025 30.27 855 25.25 13.8 56.9 27 -4.9 23.1
07:15 1025 30.27 855 25.25 13.6 56.6 28 -4.5 23.9
07:20 1025 30.27 854 25.22 13.4 56.2 28 -4.8 23.4
07:25 1025 30.27 854 25.22 13.5 56.2 28 -4.6 23.7
07:30 1025 30.27 854 25.22 13.3 56 29 -4.4 24
07:35 1025 30.27 854 25.22 13.2 55.8 29 -4.3 24.3
07:40 1025 30.27 854 25.22 13.3 56 28 -4.6 23.7
07:45 1025 30.27 854 25.22 13.6 56.4 27 -5.1 22.8
07:50 1025 30.27 855 25.25 14 57.2 28 -4.2 24.5
07:55 1025 30.27 855 25.25 14.3 57.7 28 -4 24.9
08:00 1025 30.27 855 25.25 14.6 58.3 26 -4.7 23.5
08:05 1025 30.27 855 25.25 14.6 58.4 25 -4.9 23.2
08:10 1026 30.3 855 25.25 15 59 24 -5.3 22.5
08:15 1026 30.3 855 25.25 15.3 59.5 24 -5.1 22.8
08:20 1026 30.3 855 25.25 15.4 59.6 26 -3.7 25.3
08:25 1026 30.3 855 25.25 14.9 58.8 28 -3.5 25.8
08:30 1026 30.3 855 25.25 14.8 58.6 30 -2.6 27.3
08:35 1026 30.3 855 25.25 15 59 27 -3.7 25.3
08:40 1026 30.3 855 25.25 14.9 58.8 28 -3.4 25.8
08:45 1026 30.3 855 25.25 15 58.9 34 -0.5 31.1
08:50 1026 30.3 855 25.25 15 59.1 30 -2.3 27.9
08:55 1026 30.3 855 25.25 15.1 59.2 30 -2.1 28.2
09:00 1026 30.3 855 25.25 15.6 60.1 29 -2.4 27.8
09:05 1026 30.3 855 25.25 15.9 60.6 30 -1.3 29.6
09:10 1026 30.3 855 25.25 16.6 61.9 31 -0.7 30.8
09:15 1026 30.3 855 25.25 17.5 63.4 28 -1.1 30
09:20 1026 30.3 855 25.25 18.1 64.5 22 -3.6 25.5
09:25 1026 30.3 855 25.25 18.5 65.3 26 -1.2 29.8
09:30 1026 30.3 855 25.25 18.4 65.2 26 -1.5 29.2
09:35 1026 30.3 855 25.25 18.3 64.9 29 0.2 32.3
09:40 1026 30.3 855 25.25 18.5 65.2 24 -2.5 27.5
09:45 1026 30.3 855 25.25 18.8 65.8 27 -0.3 31.5
09:50 1026 30.3 855 25.25 18.8 65.9 27 -0.3 31.4
09:55 1026 30.3 855 25.25 18.8 65.8 26 -0.8 30.6
10:00 1026 30.3 855 25.25 19.1 66.3 26 -0.8 30.5
10:05 1026 30.3 855 25.25 19.3 66.7 26 -0.6 30.9
10:10 1026 30.3 855 25.25 19.9 67.8 23 -2 28.4
10:15 1026 30.3 855 25.25 20 68 24 -1 30.1
10:20 1026 30.3 855 25.25 20.3 68.5 24 -0.7 30.7
10:25 1026 30.3 855 25.25 20.3 68.6 25 -0 31.9
10:30 1026 30.3 855 25.25 20.5 68.9 24 -0.6 30.9
10:35 1026 30.3 855 25.25 20.8 69.4 20 -2.8 27
10:40 1026 30.3 855 25.25 20.9 69.7 17 -4.9 23.2
10:45 1026 30.3 855 25.25 20.8 69.5 17 -4.7 23.5
10:50 1026 30.3 855 25.25 21 69.7 16 -5.5 22.1
10:55 1026 30.3 855 25.25 21.5 70.8 16 -5 23
11:00 1026 30.3 855 25.25 22.5 72.5 16 -4.8 23.3
11:05 1026 30.3 855 25.25 23.4 74.1 14 -5.8 21.6
11:10 1026 30.3 855 25.25 23 73.5 15 -4.7 23.6
11:15 1026 30.3 855 25.25 23.3 73.9 15 -4.8 23.4
11:20 1026 30.3 855 25.25 23.8 74.8 15 -4.6 23.8
11:25 1026 30.3 855 25.25 24.3 75.8 15 -3.5 25.7
11:30 1026 30.3 855 25.25 24 75.2 15 -4 24.8
11:35 1026 30.3 855 25.25 24 75.2 15 -4 24.8
11:40 1026 30.3 855 25.25 24.2 75.5 15 -3.8 25.1
11:45 1026 30.3 855 25.25 24.2 75.6 15 -3.5 25.8
11:50 1026 30.3 855 25.25 24.4 76 16 -3.1 26.4
11:55 1026 30.3 855 25.25 24.2 75.6 16 -3 26.6
12:00 1026 30.3 855 25.25 24.4 75.9 19 -0.6 30.9
12:05 1026 30.3 855 25.25 24.3 75.7 16 -2.7 27.2
12:10 1025 30.27 855 25.25 24.6 76.3 18 -0.8 30.5
12:15 1025 30.27 855 25.25 24.2 75.6 18 -1.2 29.9
12:20 1025 30.27 855 25.25 24.8 76.6 16 -2.2 28
12:25 1025 30.27 855 25.25 25.4 77.6 15 -2.6 27.4
12:30 1025 30.27 855 25.25 24.8 76.7 15 -3.6 25.6
12:35 1025 30.27 854 25.22 24.2 75.6 16 -3.2 26.3
12:40 1025 30.27 854 25.22 25.2 77.4 15 -2.7 27.2
12:45 1025 30.27 854 25.22 25.6 78 16 -2.2 28
12:50 1025 30.27 854 25.22 25.8 78.5 15 -3 26.7
12:55 1025 30.27 854 25.22 25.1 77.3 15 -2.8 27
13:00 1025 30.27 854 25.22 25.7 78.2 14 -3.5 25.8
13:05 1025 30.27 854 25.22 26.2 79.2 14 -2.8 26.9
13:10 1025 30.27 854 25.22 26.5 79.7 14 -2.8 26.9
13:15 1025 30.27 854 25.22 25.7 78.3 14 -3.6 25.5
13:20 1025 30.27 854 25.22 26.3 79.3 14 -3.3 26.1
13:25 1025 30.27 854 25.22 26.7 80.1 14 -2.9 26.8
13:30 1025 30.27 854 25.22 26.9 80.4 13 -3.2 26.2
13:35 1025 30.27 854 25.22 27.2 80.9 13 -3.2 26.3
13:40 1025 30.27 854 25.22 27.5 81.4 13 -2.8 26.9
13:45 1025 30.27 854 25.22 27.2 81 13 -3.4 25.9
13:50 1025 30.27 854 25.22 27.5 81.6 13 -2.8 27
13:55 1025 30.27 854 25.22 27.1 80.9 14 -2.1 28.2
14:00 1025 30.27 854 25.22 27 80.6 14 -2.5 27.5
14:05 1025 30.27 854 25.22 27.8 82 14 -2.2 28
14:10 1025 30.27 854 25.22 28.1 82.6 13 -2.6 27.3
14:15 1025 30.27 854 25.22 28 82.3 13 -2.5 27.4
14:20 1025 30.27 854 25.22 28 82.4 13 -2.2 28
14:25 1025 30.27 854 25.22 27.9 82.2 14 -1.8 28.8
14:30 1024 30.24 854 25.22 28.3 82.9 14 -1.6 29.1
14:35 1024 30.24 854 25.22 28.4 83.1 14 -1.2 29.9
14:40 1024 30.24 854 25.22 28.3 82.9 13 -2.2 28.1
14:45 1024 30.24 854 25.22 28.3 83 14 -1.5 29.3
14:50 1024 30.24 854 25.22 28.4 83.1 13 -2.4 27.7
14:55 1024 30.24 853 25.19 28.6 83.5 13 -2.1 28.3
15:00 1024 30.24 853 25.19 28.4 83 14 -1.2 29.8
15:05 1024 30.24 853 25.19 28.5 83.2 14 -1.6 29.1
15:10 1024 30.24 853 25.19 28.2 82.7 14 -1.4 29.4
15:15 1024 30.24 853 25.19 28.3 82.9 13 -2.1 28.2
15:20 1024 30.24 853 25.19 27.7 81.8 14 -2.3 27.9
15:25 1024 30.24 853 25.19 28.8 83.9 13 -2.2 28
15:30 1024 30.24 853 25.19 29.6 85.2 12 -2.1 28.2
15:35 1024 30.24 853 25.19 29.8 85.6 12 -2.6 27.3
15:40 1024 30.24 853 25.19 29.5 85.1 12 -2.5 27.6
15:45 1024 30.24 853 25.19 29.6 85.3 12 -2.7 27.1
15:50 1024 30.24 853 25.19 29.8 85.6 12 -2.1 28.3
15:55 1024 30.24 853 25.19 29.8 85.6 12 -2.3 27.9
16:00 1024 30.24 853 25.19 29.6 85.4 13 -1.6 29.2
16:05 1024 30.24 853 25.19 29.9 85.8 14 -0.4 31.3
16:10 1023 30.21 853 25.19 30.1 86.2 12 -2.4 27.7
16:15 1023 30.21 853 25.19 30.3 86.5 12 -1.7 28.9
16:20 1023 30.21 853 25.19 30.1 86.1 12 -2.3 27.9
16:25 1023 30.21 852 25.16 29.9 85.7 12 -2.5 27.6
16:30 1023 30.21 852 25.16 29.9 85.8 12 -1.9 28.5
16:35 1023 30.21 852 25.16 29.8 85.7 12 -2.3 27.9
16:40 1023 30.21 852 25.16 29.8 85.6 12 -2.8 27
16:45 1023 30.21 852 25.16 29.8 85.6 12 -2.6 27.3
16:50 1023 30.21 852 25.16 29.8 85.6 12 -2.3 27.9
16:55 1023 30.21 852 25.16 29.7 85.5 12 -2.3 27.8
17:00 1023 30.21 852 25.16 29.6 85.4 17 2.7 36.8
17:05 1023 30.21 852 25.16 29.8 85.6 12 -2 28.5
17:10 1023 30.21 852 25.16 29.5 85.2 12 -2.9 26.7
17:15 1023 30.21 852 25.16 29.6 85.3 12 -2.2 28.1
17:20 1023 30.21 852 25.16 29.5 85.2 14 -0.8 30.6
17:25 1023 30.21 852 25.16 29.5 85.1 13 -1.6 29.1
17:30 1023 30.21 852 25.16 29.4 84.8 13 -2.1 28.3
17:35 1023 30.21 852 25.16 29.1 84.4 14 -0.8 30.5
17:40 1023 30.21 852 25.16 28.9 84.1 13 -1.7 29
17:45 1023 30.21 852 25.16 28.8 83.8 14 -1.5 29.4
17:50 1023 30.21 852 25.16 28.8 83.8 14 -1 30.2
17:55 1023 30.21 852 25.16 28.7 83.6 14 -0.6 30.8
18:00 1023 30.21 852 25.16 28.5 83.2 14 -1.1 30.1
18:05 1023 30.21 852 25.16 28.3 82.9 15 -0.4 31.3
18:10 1023 30.21 852 25.16 28.2 82.7 15 -0.8 30.6
18:15 1023 30.21 852 25.16 28.2 82.7 15 -0.5 31.1
18:20 1023 30.21 852 25.16 27.9 82.1 15 -0.8 30.6
18:25 1023 30.21 852 25.16 27.6 81.8 15 -1.2 29.8
18:30 1023 30.21 852 25.16 27.5 81.4 15 -1.6 29.2
18:35 1023 30.21 852 25.16 27.3 81.2 14 -1.9 28.5
18:40 1023 30.21 852 25.16 27.1 80.7 16 -0.9 30.4
18:45 1023 30.21 852 25.16 26.8 80.2 17 0.2 32.4
18:50 1023 30.21 852 25.16 25.8 78.5 23 3.4 38.1
18:55 1023 30.21 852 25.16 24.9 76.9 22 2.1 35.7
19:00 1023 30.21 852 25.16 24.6 76.3 21 1.1 33.9
19:05 1023 30.21 852 25.16 24.5 76.1 20 0.4 32.7
19:10 1023 30.21 852 25.16 24.4 76 19 -0.4 31.4
19:15 1023 30.21 852 25.16 24.4 76 19 -0.3 31.4
19:20 1023 30.21 852 25.16 24.4 75.9 19 -0.3 31.5
19:25 1023 30.21 852 25.16 24.1 75.3 26 3.8 38.8
19:30 1023 30.21 852 25.16 23.8 74.8 23 1.6 34.9
19:35 1023 30.21 852 25.16 23.4 74.1 28 4.3 39.7
19:40 1023 30.21 852 25.16 22.8 73 28 3.4 38.2
19:45 1023 30.21 852 25.16 22.4 72.2 24 0.9 33.6
19:50 1023 30.21 852 25.16 22.3 72.2 28 2.9 37.2
19:55 1023 30.21 852 25.16 22.2 72 27 2.5 36.5
20:00 1023 30.21 852 25.16 21.6 70.8 27 2.2 35.9
20:05 1023 30.21 852 25.16 21.3 70.3 24 0 32.1
20:10 1023 30.21 853 25.19 21.9 71.4 26 1.8 35.2
20:15 1023 30.21 853 25.19 22.3 72.1 22 -0.4 31.2
20:20 1023 30.21 853 25.19 22.3 72.1 21 -0.8 30.5
20:25 1023 30.21 853 25.19 22.1 71.7 21 -1 30.1
20:30 1024 30.24 853 25.19 21.5 70.7 22 -1.1 30
20:35 1024 30.24 853 25.19 21.5 70.8 21 -1.3 29.7
20:40 1024 30.24 853 25.19 21.2 70.1 21 -1.7 29
20:45 1024 30.24 853 25.19 20.9 69.6 22 -1.7 28.9
20:50 1024 30.24 853 25.19 20.7 69.2 28 1.9 35.5
20:55 1024 30.24 853 25.19 20 68.1 24 -0.9 30.4
21:00 1024 30.24 853 25.19 19.6 67.3 22 -2.7 27.2
21:05 1024 30.24 853 25.19 20.2 68.4 21 -2.9 26.8
21:10 1024 30.24 853 25.19 20.5 69 22 -1.8 28.8
21:15 1024 30.24 853 25.19 20.1 68.1 23 -1.6 29.2
21:20 1024 30.24 853 25.19 19.7 67.4 23 -1.8 28.8
21:25 1024 30.24 853 25.19 19.4 66.9 23 -2 28.3
21:30 1024 30.24 853 25.19 19.2 66.6 24 -1.9 28.6
21:35 1024 30.24 853 25.19 19.3 66.7 24 -1.6 29.2
21:40 1024 30.24 853 25.19 19.1 66.4 25 -1.3 29.6
21:45 1024 30.24 853 25.19 18.8 65.8 25 -1.4 29.4
21:50 1024 30.24 853 25.19 18.6 65.6 25 -1.8 28.8
21:55 1024 30.24 854 25.22 18.8 65.8 25 -1.6 29.1
22:00 1024 30.24 853 25.19 18.7 65.7 25 -1.6 29.1
22:05 1024 30.24 853 25.19 18.9 65.9 23 -2.4 27.6
22:10 1024 30.24 853 25.19 19.5 67 22 -2.7 27.1
22:15 1024 30.24 853 25.19 19.7 67.5 21 -3 26.7
22:20 1024 30.24 853 25.19 20.2 68.3 20 -3.4 25.9
22:25 1024 30.24 853 25.19 20.5 68.9 21 -2.4 27.8
22:30 1024 30.24 853 25.19 20.1 68.2 19 -3.8 25.2
22:35 1024 30.24 853 25.19 20.2 68.3 22 -2.2 28
22:40 1024 30.24 853 25.19 19.4 67 28 0.7 33.2
22:45 1024 30.24 853 25.19 19.1 66.4 23 -2.4 27.7
22:50 1024 30.24 853 25.19 19.4 67 22 -2.9 26.8
22:55 1024 30.24 853 25.19 19.7 67.4 21 -3.1 26.3
23:00 1024 30.24 853 25.19 19.9 67.8 20 -3.5 25.6
23:05 1024 30.24 853 25.19 20.2 68.4 20 -3.5 25.8
23:10 1024 30.24 853 25.19 20.2 68.4 21 -2.6 27.4
23:15 1024 30.24 853 25.19 20.2 68.4 20 -3.5 25.6
23:20 1024 30.24 853 25.19 20.1 68.2 20 -3.3 26
23:25 1024 30.24 853 25.19 20.1 68.3 20 -3.7 25.4
23:30 1024 30.24 853 25.19 20.4 68.7 20 -3.4 25.9
23:35 1024 30.24 853 25.19 20.5 69 19 -3.9 25.1
23:40 1024 30.24 853 25.19 20.4 68.7 19 -3.6 25.4
23:45 1024 30.24 853 25.19 20 68 21 -3.1 26.4
23:50 1024 30.24 853 25.19 19.8 67.7 23 -1.8 28.7
23:55 1024 30.24 853 25.19 19.7 67.5 21 -3.1 26.4
24:00 1024 30.24 853 25.19 19.5 67 21 -3.5 25.7